sensor_id;sensor_type;location;lat;lon;timestamp;P1;durP1;ratioP1;P2;durP2;ratioP2
71629;SDS011;59479;51.902;8.212;2023-04-01T00:00:25;4.33;;;1.57;;
71629;SDS011;59479;51.902;8.212;2023-04-01T00:02:50;3.58;;;1.38;;
71629;SDS011;59479;51.902;8.212;2023-04-01T00:05:16;2.80;;;1.10;;
71629;SDS011;59479;51.902;8.212;2023-04-01T00:07:42;3.40;;;1.60;;
71629;SDS011;59479;51.902;8.212;2023-04-01T00:10:09;5.28;;;1.50;;
71629;SDS011;59479;51.902;8.212;2023-04-01T00:12:36;4.10;;;1.55;;
71629;SDS011;59479;51.902;8.212;2023-04-01T00:15:02;4.03;;;1.40;;
71629;SDS011;59479;51.902;8.212;2023-04-01T00:17:29;3.17;;;1.50;;
71629;SDS011;59479;51.902;8.212;2023-04-01T00:19:54;3.15;;;1.20;;
71629;SDS011;59479;51.902;8.212;2023-04-01T00:22:21;4.53;;;1.20;;
71629;SDS011;59479;51.902;8.212;2023-04-01T00:24:47;4.77;;;1.33;;
71629;SDS011;59479;51.902;8.212;2023-04-01T00:27:12;3.28;;;1.20;;
71629;SDS011;59479;51.902;8.212;2023-04-01T00:29:38;3.40;;;1.50;;
71629;SDS011;59479;51.902;8.212;2023-04-01T00:32:06;4.35;;;1.30;;
71629;SDS011;59479;51.902;8.212;2023-04-01T00:34:31;4.10;;;1.53;;
71629;SDS011;59479;51.902;8.212;2023-04-01T00:36:56;3.03;;;1.47;;
71629;SDS011;59479;51.902;8.212;2023-04-01T00:39:22;4.17;;;1.50;;
71629;SDS011;59479;51.902;8.212;2023-04-01T00:41:47;4.93;;;1.67;;
71629;SDS011;59479;51.902;8.212;2023-04-01T00:44:23;3.28;;;1.50;;
71629;SDS011;59479;51.902;8.212;2023-04-01T00:46:50;3.05;;;1.25;;
71629;SDS011;59479;51.902;8.212;2023-04-01T00:49:17;3.88;;;1.30;;
71629;SDS011;59479;51.902;8.212;2023-04-01T00:51:45;4.35;;;1.55;;
71629;SDS011;59479;51.902;8.212;2023-04-01T00:54:13;3.60;;;1.42;;
71629;SDS011;59479;51.902;8.212;2023-04-01T00:57:03;3.30;;;1.43;;
71629;SDS011;59479;51.902;8.212;2023-04-01T00:59:52;2.97;;;1.30;;
71629;SDS011;59479;51.902;8.212;2023-04-01T01:02:19;5.63;;;1.40;;
71629;SDS011;59479;51.902;8.212;2023-04-01T01:04:45;3.08;;;1.40;;
71629;SDS011;59479;51.902;8.212;2023-04-01T01:12:45;3.70;;;1.30;;
71629;SDS011;59479;51.902;8.212;2023-04-01T01:15:25;3.70;;;1.27;;
71629;SDS011;59479;51.902;8.212;2023-04-01T01:32:33;4.35;;;1.23;;
71629;SDS011;59479;51.902;8.212;2023-04-01T01:37:55;3.15;;;1.15;;
71629;SDS011;59479;51.902;8.212;2023-04-01T01:40:23;6.60;;;1.50;;
71629;SDS011;59479;51.902;8.212;2023-04-01T01:42:52;5.43;;;1.40;;
71629;SDS011;59479;51.902;8.212;2023-04-01T01:45:21;2.85;;;1.10;;
71629;SDS011;59479;51.902;8.212;2023-04-01T01:47:50;3.08;;;1.42;;
71629;SDS011;59479;51.902;8.212;2023-04-01T01:50:16;3.33;;;1.20;;
71629;SDS011;59479;51.902;8.212;2023-04-01T01:52:42;3.85;;;1.30;;
71629;SDS011;59479;51.902;8.212;2023-04-01T01:55:28;2.90;;;1.00;;
71629;SDS011;59479;51.902;8.212;2023-04-01T01:57:53;3.17;;;1.77;;
71629;SDS011;59479;51.902;8.212;2023-04-01T02:00:21;4.18;;;1.00;;
71629;SDS011;59479;51.902;8.212;2023-04-01T02:02:47;4.55;;;1.10;;
71629;SDS011;59479;51.902;8.212;2023-04-01T02:05:17;2.95;;;1.20;;
71629;SDS011;59479;51.902;8.212;2023-04-01T02:07:47;3.30;;;1.20;;
71629;SDS011;59479;51.902;8.212;2023-04-01T02:10:19;4.78;;;1.27;;
71629;SDS011;59479;51.902;8.212;2023-04-01T02:12:47;2.80;;;1.05;;
71629;SDS011;59479;51.902;8.212;2023-04-01T02:15:13;2.90;;;1.10;;
71629;SDS011;59479;51.902;8.212;2023-04-01T02:17:42;3.38;;;1.10;;
71629;SDS011;59479;51.902;8.212;2023-04-01T02:20:11;3.80;;;1.10;;
71629;SDS011;59479;51.902;8.212;2023-04-01T02:22:43;3.83;;;1.30;;
71629;SDS011;59479;51.902;8.212;2023-04-01T02:25:13;3.70;;;1.40;;
71629;SDS011;59479;51.902;8.212;2023-04-01T02:27:42;3.75;;;1.10;;
71629;SDS011;59479;51.902;8.212;2023-04-01T02:30:10;2.33;;;0.95;;
71629;SDS011;59479;51.902;8.212;2023-04-01T02:32:36;3.27;;;1.13;;
71629;SDS011;59479;51.902;8.212;2023-04-01T02:35:04;2.70;;;1.13;;
71629;SDS011;59479;51.902;8.212;2023-04-01T02:37:31;2.75;;;1.08;;
71629;SDS011;59479;51.902;8.212;2023-04-01T02:40:00;2.70;;;1.33;;
71629;SDS011;59479;51.902;8.212;2023-04-01T02:42:27;4.40;;;1.20;;
71629;SDS011;59479;51.902;8.212;2023-04-01T02:44:53;2.73;;;1.13;;
71629;SDS011;59479;51.902;8.212;2023-04-01T02:47:18;4.10;;;1.17;;
71629;SDS011;59479;51.902;8.212;2023-04-01T02:49:43;2.50;;;1.20;;
71629;SDS011;59479;51.902;8.212;2023-04-01T02:52:09;2.70;;;1.05;;
71629;SDS011;59479;51.902;8.212;2023-04-01T02:54:34;2.60;;;1.10;;
71629;SDS011;59479;51.902;8.212;2023-04-01T02:56:59;3.90;;;1.43;;
71629;SDS011;59479;51.902;8.212;2023-04-01T02:59:25;2.70;;;1.10;;
71629;SDS011;59479;51.902;8.212;2023-04-01T03:01:50;2.97;;;1.10;;
71629;SDS011;59479;51.902;8.212;2023-04-01T03:04:16;2.30;;;0.90;;
71629;SDS011;59479;51.902;8.212;2023-04-01T03:06:41;3.47;;;1.20;;
71629;SDS011;59479;51.902;8.212;2023-04-01T03:09:06;3.30;;;0.80;;
71629;SDS011;59479;51.902;8.212;2023-04-01T03:11:32;2.83;;;1.20;;
71629;SDS011;59479;51.902;8.212;2023-04-01T03:13:57;2.60;;;1.23;;
71629;SDS011;59479;51.902;8.212;2023-04-01T03:16:23;2.67;;;1.00;;
71629;SDS011;59479;51.902;8.212;2023-04-01T03:18:48;2.60;;;1.08;;
71629;SDS011;59479;51.902;8.212;2023-04-01T03:21:19;2.83;;;0.82;;
71629;SDS011;59479;51.902;8.212;2023-04-01T03:23:46;2.75;;;1.02;;
71629;SDS011;59479;51.902;8.212;2023-04-01T03:26:11;3.40;;;1.20;;
71629;SDS011;59479;51.902;8.212;2023-04-01T03:28:37;3.70;;;1.27;;
71629;SDS011;59479;51.902;8.212;2023-04-01T03:31:02;2.37;;;0.80;;
71629;SDS011;59479;51.902;8.212;2023-04-01T03:33:28;3.63;;;1.00;;
71629;SDS011;59479;51.902;8.212;2023-04-01T03:35:53;2.97;;;1.10;;
71629;SDS011;59479;51.902;8.212;2023-04-01T03:38:18;2.50;;;1.00;;
71629;SDS011;59479;51.902;8.212;2023-04-01T03:40:44;2.50;;;0.80;;
71629;SDS011;59479;51.902;8.212;2023-04-01T03:43:10;3.45;;;1.10;;
71629;SDS011;59479;51.902;8.212;2023-04-01T03:45:36;2.73;;;1.17;;
71629;SDS011;59479;51.902;8.212;2023-04-01T03:48:08;3.22;;;0.95;;
71629;SDS011;59479;51.902;8.212;2023-04-01T03:50:34;3.20;;;1.33;;
71629;SDS011;59479;51.902;8.212;2023-04-01T03:52:59;2.30;;;0.75;;
71629;SDS011;59479;51.902;8.212;2023-04-01T03:55:24;2.60;;;1.20;;
71629;SDS011;59479;51.902;8.212;2023-04-01T03:57:50;3.50;;;1.00;;
71629;SDS011;59479;51.902;8.212;2023-04-01T04:00:15;2.77;;;1.47;;
71629;SDS011;59479;51.902;8.212;2023-04-01T04:02:44;2.80;;;1.25;;
71629;SDS011;59479;51.902;8.212;2023-04-01T04:05:10;2.97;;;1.23;;
71629;SDS011;59479;51.902;8.212;2023-04-01T04:07:35;2.47;;;1.13;;
71629;SDS011;59479;51.902;8.212;2023-04-01T04:10:01;2.50;;;1.10;;
71629;SDS011;59479;51.902;8.212;2023-04-01T04:12:27;2.60;;;1.27;;
71629;SDS011;59479;51.902;8.212;2023-04-01T04:14:52;4.17;;;1.20;;
71629;SDS011;59479;51.902;8.212;2023-04-01T04:17:17;3.57;;;0.90;;
71629;SDS011;59479;51.902;8.212;2023-04-01T04:19:43;2.50;;;1.10;;
71629;SDS011;59479;51.902;8.212;2023-04-01T04:22:08;3.90;;;1.33;;
71629;SDS011;59479;51.902;8.212;2023-04-01T04:24:34;2.80;;;1.10;;
71629;SDS011;59479;51.902;8.212;2023-04-01T04:27:01;2.67;;;1.20;;
71629;SDS011;59479;51.902;8.212;2023-04-01T04:29:26;2.45;;;1.00;;
71629;SDS011;59479;51.902;8.212;2023-04-01T04:31:52;2.50;;;1.10;;
71629;SDS011;59479;51.902;8.212;2023-04-01T04:34:17;3.30;;;0.90;;
71629;SDS011;59479;51.902;8.212;2023-04-01T04:36:43;2.50;;;1.00;;
71629;SDS011;59479;51.902;8.212;2023-04-01T04:39:09;2.22;;;1.08;;
71629;SDS011;59479;51.902;8.212;2023-04-01T04:41:36;2.77;;;1.20;;
71629;SDS011;59479;51.902;8.212;2023-04-01T04:44:02;3.38;;;1.30;;
71629;SDS011;59479;51.902;8.212;2023-04-01T04:46:27;2.50;;;1.10;;
71629;SDS011;59479;51.902;8.212;2023-04-01T04:48:52;2.60;;;1.20;;
71629;SDS011;59479;51.902;8.212;2023-04-01T04:51:19;2.60;;;1.27;;
71629;SDS011;59479;51.902;8.212;2023-04-01T04:53:45;3.38;;;1.30;;
71629;SDS011;59479;51.902;8.212;2023-04-01T04:56:10;2.80;;;1.17;;
71629;SDS011;59479;51.902;8.212;2023-04-01T04:58:36;2.45;;;1.02;;
71629;SDS011;59479;51.902;8.212;2023-04-01T05:01:06;3.47;;;1.20;;
71629;SDS011;59479;51.902;8.212;2023-04-01T05:03:36;3.78;;;1.20;;
71629;SDS011;59479;51.902;8.212;2023-04-01T05:06:02;3.55;;;0.95;;
71629;SDS011;59479;51.902;8.212;2023-04-01T05:08:27;2.50;;;1.00;;
71629;SDS011;59479;51.902;8.212;2023-04-01T05:10:52;2.90;;;1.17;;
71629;SDS011;59479;51.902;8.212;2023-04-01T05:13:18;2.60;;;1.23;;
71629;SDS011;59479;51.902;8.212;2023-04-01T05:15:43;3.50;;;1.23;;
71629;SDS011;59479;51.902;8.212;2023-04-01T05:18:08;3.20;;;1.53;;
71629;SDS011;59479;51.902;8.212;2023-04-01T05:20:34;3.37;;;1.60;;
71629;SDS011;59479;51.902;8.212;2023-04-01T05:22:59;3.27;;;1.60;;
71629;SDS011;59479;51.902;8.212;2023-04-01T05:25:25;4.70;;;1.70;;
71629;SDS011;59479;51.902;8.212;2023-04-01T05:27:50;3.50;;;1.83;;
71629;SDS011;59479;51.902;8.212;2023-04-01T05:30:16;4.30;;;1.70;;
71629;SDS011;59479;51.902;8.212;2023-04-01T05:32:42;3.40;;;1.73;;
71629;SDS011;59479;51.902;8.212;2023-04-01T05:35:08;3.50;;;1.58;;
71629;SDS011;59479;51.902;8.212;2023-04-01T05:37:35;3.35;;;1.88;;
71629;SDS011;59479;51.902;8.212;2023-04-01T05:40:00;2.95;;;1.40;;
71629;SDS011;59479;51.902;8.212;2023-04-01T05:42:26;2.93;;;1.40;;
71629;SDS011;59479;51.902;8.212;2023-04-01T05:44:51;2.60;;;1.20;;
71629;SDS011;59479;51.902;8.212;2023-04-01T05:47:16;3.30;;;1.30;;
71629;SDS011;59479;51.902;8.212;2023-04-01T05:49:42;3.00;;;1.00;;
71629;SDS011;59479;51.902;8.212;2023-04-01T05:52:07;2.40;;;1.00;;
71629;SDS011;59479;51.902;8.212;2023-04-01T05:54:33;2.83;;;0.93;;
71629;SDS011;59479;51.902;8.212;2023-04-01T05:56:58;3.30;;;1.30;;
71629;SDS011;59479;51.902;8.212;2023-04-01T05:59:23;2.60;;;0.83;;
71629;SDS011;59479;51.902;8.212;2023-04-01T06:01:49;2.53;;;0.80;;
71629;SDS011;59479;51.902;8.212;2023-04-01T06:04:15;2.83;;;1.10;;
71629;SDS011;59479;51.902;8.212;2023-04-01T06:06:42;3.57;;;1.00;;
71629;SDS011;59479;51.902;8.212;2023-04-01T06:17:46;3.92;;;1.38;;
71629;SDS011;59479;51.902;8.212;2023-04-01T06:20:26;2.60;;;1.00;;
71629;SDS011;59479;51.902;8.212;2023-04-01T06:28:23;3.17;;;1.60;;
71629;SDS011;59479;51.902;8.212;2023-04-01T06:31:24;3.28;;;1.55;;
71629;SDS011;59479;51.902;8.212;2023-04-01T06:58:03;2.90;;;1.45;;
71629;SDS011;59479;51.902;8.212;2023-04-01T07:00:37;2.95;;;1.55;;
71629;SDS011;59479;51.902;8.212;2023-04-01T07:05:31;3.43;;;1.40;;
71629;SDS011;59479;51.902;8.212;2023-04-01T07:07:57;3.22;;;1.17;;
71629;SDS011;59479;51.902;8.212;2023-04-01T07:13:10;3.20;;;1.80;;
71629;SDS011;59479;51.902;8.212;2023-04-01T07:21:54;2.90;;;1.40;;
71629;SDS011;59479;51.902;8.212;2023-04-01T07:24:26;3.50;;;1.58;;
71629;SDS011;59479;51.902;8.212;2023-04-01T07:26:55;3.10;;;1.60;;
71629;SDS011;59479;51.902;8.212;2023-04-01T07:29:21;3.10;;;1.50;;
71629;SDS011;59479;51.902;8.212;2023-04-01T07:34:28;2.88;;;1.48;;
71629;SDS011;59479;51.902;8.212;2023-04-01T07:37:08;2.70;;;1.47;;
71629;SDS011;59479;51.902;8.212;2023-04-01T07:45:04;2.92;;;1.60;;
71629;SDS011;59479;51.902;8.212;2023-04-01T07:48:38;3.20;;;1.77;;
71629;SDS011;59479;51.902;8.212;2023-04-01T07:51:02;2.93;;;1.40;;
71629;SDS011;59479;51.902;8.212;2023-04-01T07:53:40;4.32;;;1.65;;
71629;SDS011;59479;51.902;8.212;2023-04-01T07:56:15;3.28;;;1.70;;
71629;SDS011;59479;51.902;8.212;2023-04-01T08:01:23;3.00;;;1.40;;
71629;SDS011;59479;51.902;8.212;2023-04-01T08:06:43;3.10;;;1.60;;
71629;SDS011;59479;51.902;8.212;2023-04-01T08:14:55;2.90;;;1.40;;
71629;SDS011;59479;51.902;8.212;2023-04-01T08:17:28;3.53;;;1.60;;
71629;SDS011;59479;51.902;8.212;2023-04-01T08:25:37;3.10;;;1.50;;
71629;SDS011;59479;51.902;8.212;2023-04-01T08:30:56;3.55;;;1.63;;
71629;SDS011;59479;51.902;8.212;2023-04-01T08:36:11;11.70;;;1.98;;
71629;SDS011;59479;51.902;8.212;2023-04-01T08:38:49;3.40;;;2.00;;
71629;SDS011;59479;51.902;8.212;2023-04-01T08:41:26;3.00;;;1.70;;
71629;SDS011;59479;51.902;8.212;2023-04-01T08:47:13;3.37;;;1.73;;
71629;SDS011;59479;51.902;8.212;2023-04-01T09:01:03;3.70;;;1.60;;
71629;SDS011;59479;51.902;8.212;2023-04-01T09:06:32;3.10;;;1.50;;
71629;SDS011;59479;51.902;8.212;2023-04-01T09:18:01;3.28;;;1.50;;
71629;SDS011;59479;51.902;8.212;2023-04-01T09:34:38;3.00;;;1.65;;
71629;SDS011;59479;51.902;8.212;2023-04-01T09:37:27;3.00;;;1.40;;
71629;SDS011;59479;51.902;8.212;2023-04-01T09:42:29;3.40;;;1.43;;
71629;SDS011;59479;51.902;8.212;2023-04-01T09:47:51;4.57;;;1.42;;
71629;SDS011;59479;51.902;8.212;2023-04-01T09:53:28;3.35;;;1.67;;
71629;SDS011;59479;51.902;8.212;2023-04-01T10:01:41;3.67;;;1.65;;
71629;SDS011;59479;51.902;8.212;2023-04-01T10:07:28;3.67;;;1.63;;
71629;SDS011;59479;51.902;8.212;2023-04-01T10:13:15;3.40;;;1.80;;
71629;SDS011;59479;51.902;8.212;2023-04-01T10:24:57;5.03;;;1.85;;
71629;SDS011;59479;51.902;8.212;2023-04-01T10:30:29;3.72;;;1.77;;
71629;SDS011;59479;51.902;8.212;2023-04-01T10:36:06;3.80;;;1.88;;
71629;SDS011;59479;51.902;8.212;2023-04-01T10:51:02;3.63;;;1.38;;
71629;SDS011;59479;51.902;8.212;2023-04-01T10:59:01;3.13;;;1.50;;
71629;SDS011;59479;51.902;8.212;2023-04-01T11:05:12;3.30;;;1.90;;
71629;SDS011;59479;51.902;8.212;2023-04-01T11:10:56;2.97;;;1.60;;
71629;SDS011;59479;51.902;8.212;2023-04-01T11:13:44;3.00;;;1.70;;
71629;SDS011;59479;51.902;8.212;2023-04-01T11:16:26;3.10;;;1.63;;
71629;SDS011;59479;51.902;8.212;2023-04-01T11:25:17;2.70;;;1.57;;
71629;SDS011;59479;51.902;8.212;2023-04-01T11:30:49;3.47;;;1.83;;
71629;SDS011;59479;51.902;8.212;2023-04-01T11:33:23;2.88;;;1.42;;
71629;SDS011;59479;51.902;8.212;2023-04-01T11:36:03;2.95;;;1.40;;
71629;SDS011;59479;51.902;8.212;2023-04-01T11:44:20;3.75;;;1.70;;
71629;SDS011;59479;51.902;8.212;2023-04-01T12:04:26;4.53;;;1.90;;
71629;SDS011;59479;51.902;8.212;2023-04-01T12:12:39;3.10;;;1.50;;
71629;SDS011;59479;51.902;8.212;2023-04-01T12:24:03;4.30;;;2.50;;
71629;SDS011;59479;51.902;8.212;2023-04-01T12:36:18;4.00;;;2.17;;
71629;SDS011;59479;51.902;8.212;2023-04-01T12:51:47;3.83;;;2.30;;
71629;SDS011;59479;51.902;8.212;2023-04-01T12:54:30;3.67;;;2.10;;
71629;SDS011;59479;51.902;8.212;2023-04-01T13:08:57;4.72;;;2.45;;
71629;SDS011;59479;51.902;8.212;2023-04-01T13:25:15;4.10;;;2.63;;
71629;SDS011;59479;51.902;8.212;2023-04-01T13:27:44;5.30;;;2.90;;
71629;SDS011;59479;51.902;8.212;2023-04-01T13:32:43;4.37;;;2.60;;
71629;SDS011;59479;51.902;8.212;2023-04-01T13:35:18;4.40;;;2.70;;
71629;SDS011;59479;51.902;8.212;2023-04-01T13:38:00;4.05;;;2.58;;
71629;SDS011;59479;51.902;8.212;2023-04-01T13:43:42;3.75;;;2.30;;
71629;SDS011;59479;51.902;8.212;2023-04-01T13:47:15;4.95;;;2.60;;
71629;SDS011;59479;51.902;8.212;2023-04-01T13:49:23;4.87;;;2.67;;
71629;SDS011;59479;51.902;8.212;2023-04-01T13:58:04;3.78;;;2.22;;
71629;SDS011;59479;51.902;8.212;2023-04-01T14:01:00;4.22;;;2.70;;
71629;SDS011;59479;51.902;8.212;2023-04-01T14:20:27;5.68;;;2.50;;
71629;SDS011;59479;51.902;8.212;2023-04-01T14:26:04;6.55;;;2.85;;
71629;SDS011;59479;51.902;8.212;2023-04-01T14:34:18;4.85;;;2.67;;
71629;SDS011;59479;51.902;8.212;2023-04-01T14:39:48;5.38;;;2.35;;
71629;SDS011;59479;51.902;8.212;2023-04-01T14:50:43;4.75;;;3.00;;
71629;SDS011;59479;51.902;8.212;2023-04-01T14:58:17;4.10;;;2.37;;
71629;SDS011;59479;51.902;8.212;2023-04-01T15:03:36;4.88;;;2.33;;
71629;SDS011;59479;51.902;8.212;2023-04-01T15:09:17;5.93;;;2.72;;
71629;SDS011;59479;51.902;8.212;2023-04-01T15:12:18;5.43;;;2.70;;
71629;SDS011;59479;51.902;8.212;2023-04-01T15:19:53;4.65;;;2.75;;
71629;SDS011;59479;51.902;8.212;2023-04-01T15:22:51;4.35;;;2.58;;
71629;SDS011;59479;51.902;8.212;2023-04-01T15:25:30;5.20;;;3.30;;
71629;SDS011;59479;51.902;8.212;2023-04-01T15:28:10;5.53;;;2.97;;
71629;SDS011;59479;51.902;8.212;2023-04-01T15:39:24;4.63;;;2.90;;
71629;SDS011;59479;51.902;8.212;2023-04-01T15:42:15;4.63;;;2.80;;
71629;SDS011;59479;51.902;8.212;2023-04-01T15:47:37;5.25;;;2.95;;
71629;SDS011;59479;51.902;8.212;2023-04-01T15:50:21;8.45;;;3.83;;
71629;SDS011;59479;51.902;8.212;2023-04-01T16:04:41;6.50;;;4.05;;
71629;SDS011;59479;51.902;8.212;2023-04-01T16:24:45;5.47;;;3.97;;
71629;SDS011;59479;51.902;8.212;2023-04-01T16:30:32;8.88;;;4.50;;
71629;SDS011;59479;51.902;8.212;2023-04-01T16:33:21;5.72;;;3.35;;
71629;SDS011;59479;51.902;8.212;2023-04-01T16:35:53;6.53;;;4.03;;
71629;SDS011;59479;51.902;8.212;2023-04-01T16:38:33;7.57;;;4.27;;
71629;SDS011;59479;51.902;8.212;2023-04-01T16:41:07;7.38;;;4.18;;
71629;SDS011;59479;51.902;8.212;2023-04-01T16:49:00;5.55;;;3.92;;
71629;SDS011;59479;51.902;8.212;2023-04-01T16:56:54;6.68;;;3.35;;
71629;SDS011;59479;51.902;8.212;2023-04-01T17:04:33;4.80;;;3.33;;
71629;SDS011;59479;51.902;8.212;2023-04-01T17:10:39;6.47;;;3.90;;
71629;SDS011;59479;51.902;8.212;2023-04-01T17:15:47;5.15;;;3.78;;
71629;SDS011;59479;51.902;8.212;2023-04-01T17:18:22;6.38;;;4.13;;
71629;SDS011;59479;51.902;8.212;2023-04-01T17:23:51;6.72;;;3.95;;
71629;SDS011;59479;51.902;8.212;2023-04-01T17:28:56;5.68;;;3.92;;
71629;SDS011;59479;51.902;8.212;2023-04-01T17:47:29;4.30;;;2.50;;
71629;SDS011;59479;51.902;8.212;2023-04-01T17:55:43;3.45;;;2.05;;
71629;SDS011;59479;51.902;8.212;2023-04-01T18:07:26;3.58;;;1.77;;
71629;SDS011;59479;51.902;8.212;2023-04-01T18:15:40;3.10;;;1.83;;
71629;SDS011;59479;51.902;8.212;2023-04-01T18:18:17;3.60;;;1.90;;
71629;SDS011;59479;51.902;8.212;2023-04-01T18:23:38;3.60;;;2.17;;
71629;SDS011;59479;51.902;8.212;2023-04-01T18:26:12;3.30;;;2.00;;
71629;SDS011;59479;51.902;8.212;2023-04-01T18:28:45;3.50;;;2.13;;
71629;SDS011;59479;51.902;8.212;2023-04-01T18:31:18;2.80;;;1.58;;
71629;SDS011;59479;51.902;8.212;2023-04-01T18:33:53;3.45;;;1.90;;
71629;SDS011;59479;51.902;8.212;2023-04-01T18:36:51;4.20;;;2.20;;
71629;SDS011;59479;51.902;8.212;2023-04-01T18:39:31;3.70;;;2.05;;
71629;SDS011;59479;51.902;8.212;2023-04-01T18:42:15;3.67;;;1.87;;
71629;SDS011;59479;51.902;8.212;2023-04-01T18:44:50;3.90;;;1.98;;
71629;SDS011;59479;51.902;8.212;2023-04-01T18:53:17;3.67;;;1.80;;
71629;SDS011;59479;51.902;8.212;2023-04-01T18:58:21;3.88;;;1.80;;
71629;SDS011;59479;51.902;8.212;2023-04-01T19:06:23;3.50;;;1.97;;
71629;SDS011;59479;51.902;8.212;2023-04-01T19:08:50;4.07;;;2.10;;
71629;SDS011;59479;51.902;8.212;2023-04-01T19:11:26;4.03;;;2.10;;
71629;SDS011;59479;51.902;8.212;2023-04-01T19:14:12;5.17;;;2.00;;
71629;SDS011;59479;51.902;8.212;2023-04-01T19:22:44;3.97;;;2.00;;
71629;SDS011;59479;51.902;8.212;2023-04-01T19:27:52;3.90;;;2.00;;
71629;SDS011;59479;51.902;8.212;2023-04-01T19:36:09;3.65;;;1.80;;
71629;SDS011;59479;51.902;8.212;2023-04-01T19:38:51;4.72;;;2.00;;
71629;SDS011;59479;51.902;8.212;2023-04-01T19:44:09;3.60;;;2.13;;
71629;SDS011;59479;51.902;8.212;2023-04-01T19:47:30;3.92;;;2.00;;
71629;SDS011;59479;51.902;8.212;2023-04-01T19:49:50;5.68;;;1.88;;
71629;SDS011;59479;51.902;8.212;2023-04-01T19:52:23;5.38;;;2.10;;
71629;SDS011;59479;51.902;8.212;2023-04-01T19:54:58;4.03;;;2.00;;
71629;SDS011;59479;51.902;8.212;2023-04-01T19:57:46;3.10;;;1.70;;
71629;SDS011;59479;51.902;8.212;2023-04-01T20:00:34;3.15;;;1.80;;
71629;SDS011;59479;51.902;8.212;2023-04-01T20:03:05;3.25;;;1.65;;
71629;SDS011;59479;51.902;8.212;2023-04-01T20:05:35;3.20;;;1.92;;
71629;SDS011;59479;51.902;8.212;2023-04-01T20:08:08;3.20;;;1.80;;
71629;SDS011;59479;51.902;8.212;2023-04-01T20:10:38;3.22;;;1.63;;
71629;SDS011;59479;51.902;8.212;2023-04-01T20:16:14;3.53;;;1.85;;
71629;SDS011;59479;51.902;8.212;2023-04-01T20:18:48;3.42;;;1.98;;
71629;SDS011;59479;51.902;8.212;2023-04-01T20:26:50;4.90;;;2.17;;
71629;SDS011;59479;51.902;8.212;2023-04-01T20:31:58;4.15;;;2.40;;
71629;SDS011;59479;51.902;8.212;2023-04-01T20:40:33;4.43;;;2.28;;
71629;SDS011;59479;51.902;8.212;2023-04-01T20:51:06;4.65;;;2.53;;
71629;SDS011;59479;51.902;8.212;2023-04-01T21:12:21;3.83;;;2.20;;
71629;SDS011;59479;51.902;8.212;2023-04-01T21:14:56;3.67;;;2.15;;
71629;SDS011;59479;51.902;8.212;2023-04-01T21:23:11;4.25;;;2.90;;
71629;SDS011;59479;51.902;8.212;2023-04-01T21:28:35;4.25;;;2.80;;
71629;SDS011;59479;51.902;8.212;2023-04-01T21:31:11;4.30;;;2.70;;
71629;SDS011;59479;51.902;8.212;2023-04-01T21:38:58;4.50;;;2.45;;
71629;SDS011;59479;51.902;8.212;2023-04-01T21:41:50;4.45;;;2.63;;
71629;SDS011;59479;51.902;8.212;2023-04-01T21:44:40;5.65;;;3.00;;
71629;SDS011;59479;51.902;8.212;2023-04-01T21:47:33;4.53;;;3.00;;
71629;SDS011;59479;51.902;8.212;2023-04-01T21:56:03;4.28;;;2.83;;
71629;SDS011;59479;51.902;8.212;2023-04-01T22:04:17;4.30;;;2.60;;
71629;SDS011;59479;51.902;8.212;2023-04-01T22:07:12;4.07;;;2.35;;
71629;SDS011;59479;51.902;8.212;2023-04-01T22:17:59;3.67;;;2.00;;
71629;SDS011;59479;51.902;8.212;2023-04-01T22:20:39;5.65;;;2.20;;
71629;SDS011;59479;51.902;8.212;2023-04-01T22:23:14;4.20;;;2.60;;
71629;SDS011;59479;51.902;8.212;2023-04-01T22:28:34;4.37;;;2.37;;
71629;SDS011;59479;51.902;8.212;2023-04-01T22:31:08;4.35;;;2.35;;
71629;SDS011;59479;51.902;8.212;2023-04-01T22:33:39;4.05;;;2.10;;
71629;SDS011;59479;51.902;8.212;2023-04-01T22:47:35;3.72;;;2.03;;
71629;SDS011;59479;51.902;8.212;2023-04-01T22:50:10;3.65;;;2.08;;
71629;SDS011;59479;51.902;8.212;2023-04-01T22:52:44;3.97;;;2.30;;
71629;SDS011;59479;51.902;8.212;2023-04-01T22:55:16;4.30;;;2.40;;
71629;SDS011;59479;51.902;8.212;2023-04-01T22:57:50;4.88;;;2.28;;
71629;SDS011;59479;51.902;8.212;2023-04-01T23:00:30;3.85;;;2.25;;
71629;SDS011;59479;51.902;8.212;2023-04-01T23:03:28;3.45;;;2.05;;
71629;SDS011;59479;51.902;8.212;2023-04-01T23:06:00;3.75;;;2.42;;
71629;SDS011;59479;51.902;8.212;2023-04-01T23:11:07;4.95;;;2.40;;
71629;SDS011;59479;51.902;8.212;2023-04-01T23:13:39;3.90;;;2.17;;
71629;SDS011;59479;51.902;8.212;2023-04-01T23:16:08;4.35;;;2.55;;
71629;SDS011;59479;51.902;8.212;2023-04-01T23:21:59;3.50;;;2.20;;
71629;SDS011;59479;51.902;8.212;2023-04-01T23:27:00;3.38;;;1.95;;
71629;SDS011;59479;51.902;8.212;2023-04-01T23:29:28;3.42;;;1.95;;
71629;SDS011;59479;51.902;8.212;2023-04-01T23:32:03;3.40;;;2.00;;
71629;SDS011;59479;51.902;8.212;2023-04-01T23:34:32;3.40;;;2.30;;
71629;SDS011;59479;51.902;8.212;2023-04-01T23:37:18;3.35;;;1.92;;
71629;SDS011;59479;51.902;8.212;2023-04-01T23:39:45;3.30;;;2.00;;
71629;SDS011;59479;51.902;8.212;2023-04-01T23:42:19;4.03;;;1.80;;
71629;SDS011;59479;51.902;8.212;2023-04-01T23:44:48;3.83;;;2.13;;
71629;SDS011;59479;51.902;8.212;2023-04-01T23:47:35;3.63;;;2.05;;
71629;SDS011;59479;51.902;8.212;2023-04-01T23:50:09;3.60;;;1.95;;
71629;SDS011;59479;51.902;8.212;2023-04-01T23:55:30;3.83;;;1.90;;
